sensor_id;sensor_type;location;lat;lon;timestamp;P1;durP1;ratioP1;P2;durP2;ratioP2
16512;SDS011;8369;48.030;11.598;2023-12-29T00:01:11;2.43;;;2.07;;
16512;SDS011;8369;48.030;11.598;2023-12-29T00:03:38;2.23;;;2.03;;
16512;SDS011;8369;48.030;11.598;2023-12-29T00:06:04;3.43;;;2.07;;
16512;SDS011;8369;48.030;11.598;2023-12-29T00:08:31;4.93;;;2.70;;
16512;SDS011;8369;48.030;11.598;2023-12-29T00:10:58;2.57;;;2.00;;
16512;SDS011;8369;48.030;11.598;2023-12-29T00:13:25;2.70;;;1.80;;
16512;SDS011;8369;48.030;11.598;2023-12-29T00:15:52;2.00;;;1.70;;
16512;SDS011;8369;48.030;11.598;2023-12-29T00:18:19;4.17;;;2.20;;
16512;SDS011;8369;48.030;11.598;2023-12-29T00:20:46;2.63;;;1.77;;
16512;SDS011;8369;48.030;11.598;2023-12-29T00:23:13;4.63;;;1.80;;
16512;SDS011;8369;48.030;11.598;2023-12-29T00:25:39;2.30;;;1.90;;
16512;SDS011;8369;48.030;11.598;2023-12-29T00:28:06;2.80;;;2.00;;
16512;SDS011;8369;48.030;11.598;2023-12-29T00:30:33;1.90;;;1.70;;
16512;SDS011;8369;48.030;11.598;2023-12-29T00:33:04;2.10;;;1.77;;
16512;SDS011;8369;48.030;11.598;2023-12-29T00:35:30;2.63;;;2.20;;
16512;SDS011;8369;48.030;11.598;2023-12-29T00:37:57;3.57;;;2.20;;
16512;SDS011;8369;48.030;11.598;2023-12-29T00:40:23;4.30;;;2.40;;
16512;SDS011;8369;48.030;11.598;2023-12-29T00:42:50;2.70;;;2.00;;
16512;SDS011;8369;48.030;11.598;2023-12-29T00:45:17;2.90;;;2.10;;
16512;SDS011;8369;48.030;11.598;2023-12-29T00:47:44;2.07;;;1.73;;
16512;SDS011;8369;48.030;11.598;2023-12-29T00:50:11;3.10;;;1.90;;
16512;SDS011;8369;48.030;11.598;2023-12-29T00:52:38;2.27;;;1.83;;
16512;SDS011;8369;48.030;11.598;2023-12-29T00:55:05;2.80;;;2.20;;
16512;SDS011;8369;48.030;11.598;2023-12-29T00:57:31;2.90;;;1.87;;
16512;SDS011;8369;48.030;11.598;2023-12-29T00:59:59;2.40;;;1.90;;
16512;SDS011;8369;48.030;11.598;2023-12-29T01:02:26;3.07;;;1.90;;
16512;SDS011;8369;48.030;11.598;2023-12-29T01:04:53;1.97;;;1.73;;
16512;SDS011;8369;48.030;11.598;2023-12-29T01:07:22;3.53;;;2.10;;
16512;SDS011;8369;48.030;11.598;2023-12-29T01:09:49;1.97;;;1.77;;
16512;SDS011;8369;48.030;11.598;2023-12-29T01:12:16;2.47;;;1.97;;
16512;SDS011;8369;48.030;11.598;2023-12-29T01:14:46;2.20;;;1.80;;
16512;SDS011;8369;48.030;11.598;2023-12-29T01:17:12;2.80;;;1.73;;
16512;SDS011;8369;48.030;11.598;2023-12-29T01:19:39;3.07;;;2.00;;
16512;SDS011;8369;48.030;11.598;2023-12-29T01:22:05;3.83;;;2.33;;
16512;SDS011;8369;48.030;11.598;2023-12-29T01:24:34;2.77;;;1.87;;
16512;SDS011;8369;48.030;11.598;2023-12-29T01:27:02;2.27;;;1.70;;
16512;SDS011;8369;48.030;11.598;2023-12-29T01:29:30;2.00;;;1.73;;
16512;SDS011;8369;48.030;11.598;2023-12-29T01:31:56;2.43;;;1.80;;
16512;SDS011;8369;48.030;11.598;2023-12-29T01:34:23;2.07;;;1.80;;
16512;SDS011;8369;48.030;11.598;2023-12-29T01:36:58;2.43;;;1.70;;
16512;SDS011;8369;48.030;11.598;2023-12-29T01:39:25;2.93;;;1.67;;
16512;SDS011;8369;48.030;11.598;2023-12-29T01:41:51;1.77;;;1.67;;
16512;SDS011;8369;48.030;11.598;2023-12-29T01:44:22;2.40;;;1.97;;
16512;SDS011;8369;48.030;11.598;2023-12-29T01:46:49;3.23;;;1.90;;
16512;SDS011;8369;48.030;11.598;2023-12-29T01:49:17;3.73;;;1.77;;
16512;SDS011;8369;48.030;11.598;2023-12-29T01:51:44;2.03;;;1.70;;
16512;SDS011;8369;48.030;11.598;2023-12-29T01:54:17;1.73;;;1.63;;
16512;SDS011;8369;48.030;11.598;2023-12-29T01:56:48;1.93;;;1.77;;
16512;SDS011;8369;48.030;11.598;2023-12-29T01:59:19;2.47;;;1.90;;
16512;SDS011;8369;48.030;11.598;2023-12-29T02:01:46;3.13;;;2.03;;
16512;SDS011;8369;48.030;11.598;2023-12-29T02:04:13;3.10;;;2.40;;
16512;SDS011;8369;48.030;11.598;2023-12-29T02:06:40;1.87;;;1.67;;
16512;SDS011;8369;48.030;11.598;2023-12-29T02:09:09;2.80;;;2.20;;
16512;SDS011;8369;48.030;11.598;2023-12-29T02:11:40;1.93;;;1.60;;
16512;SDS011;8369;48.030;11.598;2023-12-29T02:14:06;1.90;;;1.70;;
16512;SDS011;8369;48.030;11.598;2023-12-29T02:16:34;1.90;;;1.57;;
16512;SDS011;8369;48.030;11.598;2023-12-29T02:22:10;3.87;;;2.30;;
16512;SDS011;8369;48.030;11.598;2023-12-29T02:24:37;2.20;;;1.87;;
16512;SDS011;8369;48.030;11.598;2023-12-29T02:27:11;1.97;;;1.77;;
16512;SDS011;8369;48.030;11.598;2023-12-29T02:29:53;2.20;;;1.70;;
16512;SDS011;8369;48.030;11.598;2023-12-29T02:32:34;4.87;;;2.10;;
16512;SDS011;8369;48.030;11.598;2023-12-29T02:35:05;5.10;;;2.73;;
16512;SDS011;8369;48.030;11.598;2023-12-29T02:37:35;3.17;;;2.17;;
16512;SDS011;8369;48.030;11.598;2023-12-29T02:40:05;2.97;;;2.00;;
16512;SDS011;8369;48.030;11.598;2023-12-29T02:42:36;2.10;;;1.90;;
16512;SDS011;8369;48.030;11.598;2023-12-29T02:45:04;8.70;;;4.40;;
16512;SDS011;8369;48.030;11.598;2023-12-29T02:47:31;15.77;;;9.40;;
16512;SDS011;8369;48.030;11.598;2023-12-29T02:49:58;13.10;;;7.27;;
16512;SDS011;8369;48.030;11.598;2023-12-29T02:52:25;11.83;;;7.73;;
16512;SDS011;8369;48.030;11.598;2023-12-29T02:54:52;8.40;;;5.93;;
16512;SDS011;8369;48.030;11.598;2023-12-29T02:57:19;8.63;;;5.67;;
16512;SDS011;8369;48.030;11.598;2023-12-29T02:59:46;8.50;;;5.10;;
16512;SDS011;8369;48.030;11.598;2023-12-29T03:02:13;12.00;;;7.63;;
16512;SDS011;8369;48.030;11.598;2023-12-29T03:04:43;6.87;;;4.93;;
16512;SDS011;8369;48.030;11.598;2023-12-29T03:07:10;3.30;;;2.13;;
16512;SDS011;8369;48.030;11.598;2023-12-29T03:09:37;2.67;;;1.80;;
16512;SDS011;8369;48.030;11.598;2023-12-29T03:12:05;3.03;;;1.80;;
16512;SDS011;8369;48.030;11.598;2023-12-29T03:14:35;2.40;;;1.87;;
16512;SDS011;8369;48.030;11.598;2023-12-29T03:17:02;2.70;;;2.10;;
16512;SDS011;8369;48.030;11.598;2023-12-29T03:19:30;3.53;;;2.40;;
16512;SDS011;8369;48.030;11.598;2023-12-29T03:21:57;3.20;;;2.23;;
16512;SDS011;8369;48.030;11.598;2023-12-29T03:24:24;4.60;;;3.43;;
16512;SDS011;8369;48.030;11.598;2023-12-29T03:26:52;5.90;;;4.17;;
16512;SDS011;8369;48.030;11.598;2023-12-29T03:29:21;3.77;;;3.23;;
16512;SDS011;8369;48.030;11.598;2023-12-29T03:31:52;4.43;;;3.27;;
16512;SDS011;8369;48.030;11.598;2023-12-29T03:34:19;8.20;;;3.10;;
16512;SDS011;8369;48.030;11.598;2023-12-29T03:36:46;4.07;;;2.93;;
16512;SDS011;8369;48.030;11.598;2023-12-29T03:39:13;4.23;;;3.17;;
16512;SDS011;8369;48.030;11.598;2023-12-29T03:41:40;3.47;;;2.90;;
16512;SDS011;8369;48.030;11.598;2023-12-29T03:44:14;3.80;;;2.70;;
16512;SDS011;8369;48.030;11.598;2023-12-29T03:46:43;3.50;;;2.70;;
16512;SDS011;8369;48.030;11.598;2023-12-29T03:49:10;3.70;;;2.80;;
16512;SDS011;8369;48.030;11.598;2023-12-29T03:51:40;4.20;;;2.97;;
16512;SDS011;8369;48.030;11.598;2023-12-29T03:54:06;3.63;;;2.70;;
16512;SDS011;8369;48.030;11.598;2023-12-29T03:56:33;5.27;;;2.70;;
16512;SDS011;8369;48.030;11.598;2023-12-29T03:58:59;2.90;;;2.50;;
16512;SDS011;8369;48.030;11.598;2023-12-29T04:01:27;3.07;;;2.63;;
16512;SDS011;8369;48.030;11.598;2023-12-29T04:03:55;3.67;;;2.60;;
16512;SDS011;8369;48.030;11.598;2023-12-29T04:06:22;4.27;;;2.70;;
16512;SDS011;8369;48.030;11.598;2023-12-29T04:08:51;3.03;;;2.23;;
16512;SDS011;8369;48.030;11.598;2023-12-29T04:11:21;2.60;;;2.13;;
16512;SDS011;8369;48.030;11.598;2023-12-29T04:13:48;3.60;;;2.43;;
16512;SDS011;8369;48.030;11.598;2023-12-29T04:16:15;3.83;;;2.40;;
16512;SDS011;8369;48.030;11.598;2023-12-29T04:18:44;4.67;;;2.43;;
16512;SDS011;8369;48.030;11.598;2023-12-29T04:21:14;2.80;;;2.30;;
16512;SDS011;8369;48.030;11.598;2023-12-29T04:23:42;3.50;;;2.20;;
16512;SDS011;8369;48.030;11.598;2023-12-29T04:26:10;4.00;;;2.40;;
16512;SDS011;8369;48.030;11.598;2023-12-29T04:28:39;6.37;;;2.60;;
16512;SDS011;8369;48.030;11.598;2023-12-29T04:31:09;2.70;;;2.10;;
16512;SDS011;8369;48.030;11.598;2023-12-29T04:33:38;3.73;;;2.30;;
16512;SDS011;8369;48.030;11.598;2023-12-29T04:36:06;5.00;;;3.03;;
16512;SDS011;8369;48.030;11.598;2023-12-29T04:38:32;15.97;;;8.40;;
16512;SDS011;8369;48.030;11.598;2023-12-29T04:40:59;9.93;;;5.37;;
16512;SDS011;8369;48.030;11.598;2023-12-29T04:43:26;12.43;;;7.93;;
16512;SDS011;8369;48.030;11.598;2023-12-29T04:45:56;16.50;;;9.60;;
16512;SDS011;8369;48.030;11.598;2023-12-29T04:48:23;15.87;;;9.70;;
16512;SDS011;8369;48.030;11.598;2023-12-29T04:50:50;10.47;;;6.80;;
16512;SDS011;8369;48.030;11.598;2023-12-29T04:53:17;13.63;;;8.40;;
16512;SDS011;8369;48.030;11.598;2023-12-29T04:55:46;8.40;;;4.70;;
16512;SDS011;8369;48.030;11.598;2023-12-29T04:58:14;6.67;;;4.57;;
16512;SDS011;8369;48.030;11.598;2023-12-29T05:00:42;6.80;;;3.87;;
16512;SDS011;8369;48.030;11.598;2023-12-29T05:03:13;3.60;;;2.97;;
16512;SDS011;8369;48.030;11.598;2023-12-29T05:05:43;4.67;;;3.73;;
16512;SDS011;8369;48.030;11.598;2023-12-29T05:08:14;5.20;;;3.50;;
16512;SDS011;8369;48.030;11.598;2023-12-29T05:10:41;4.90;;;3.63;;
16512;SDS011;8369;48.030;11.598;2023-12-29T05:13:07;3.33;;;2.40;;
16512;SDS011;8369;48.030;11.598;2023-12-29T05:15:34;2.63;;;2.10;;
16512;SDS011;8369;48.030;11.598;2023-12-29T05:18:04;2.00;;;1.80;;
16512;SDS011;8369;48.030;11.598;2023-12-29T05:20:32;2.03;;;1.70;;
16512;SDS011;8369;48.030;11.598;2023-12-29T05:22:59;2.50;;;1.93;;
16512;SDS011;8369;48.030;11.598;2023-12-29T05:25:28;2.43;;;2.00;;
16512;SDS011;8369;48.030;11.598;2023-12-29T05:27:57;2.43;;;1.90;;
16512;SDS011;8369;48.030;11.598;2023-12-29T05:30:24;2.13;;;1.87;;
16512;SDS011;8369;48.030;11.598;2023-12-29T05:32:58;3.10;;;2.30;;
16512;SDS011;8369;48.030;11.598;2023-12-29T05:35:26;4.43;;;3.37;;
16512;SDS011;8369;48.030;11.598;2023-12-29T05:37:53;4.00;;;2.90;;
16512;SDS011;8369;48.030;11.598;2023-12-29T05:40:21;2.77;;;2.00;;
16512;SDS011;8369;48.030;11.598;2023-12-29T05:42:48;2.50;;;1.83;;
16512;SDS011;8369;48.030;11.598;2023-12-29T05:45:15;2.60;;;1.70;;
16512;SDS011;8369;48.030;11.598;2023-12-29T05:47:56;3.10;;;1.93;;
16512;SDS011;8369;48.030;11.598;2023-12-29T05:50:26;1.87;;;1.70;;
16512;SDS011;8369;48.030;11.598;2023-12-29T05:52:53;2.13;;;1.80;;
16512;SDS011;8369;48.030;11.598;2023-12-29T05:55:21;3.27;;;1.60;;
16512;SDS011;8369;48.030;11.598;2023-12-29T05:57:49;2.27;;;1.70;;
16512;SDS011;8369;48.030;11.598;2023-12-29T06:00:17;2.87;;;1.77;;
16512;SDS011;8369;48.030;11.598;2023-12-29T06:02:47;2.30;;;1.83;;
16512;SDS011;8369;48.030;11.598;2023-12-29T06:05:15;2.27;;;1.80;;
16512;SDS011;8369;48.030;11.598;2023-12-29T06:07:46;2.07;;;1.73;;
16512;SDS011;8369;48.030;11.598;2023-12-29T06:10:14;2.63;;;1.90;;
16512;SDS011;8369;48.030;11.598;2023-12-29T06:12:42;2.23;;;2.00;;
16512;SDS011;8369;48.030;11.598;2023-12-29T06:15:12;2.07;;;1.87;;
16512;SDS011;8369;48.030;11.598;2023-12-29T06:17:43;2.40;;;2.00;;
16512;SDS011;8369;48.030;11.598;2023-12-29T06:20:11;2.20;;;2.00;;
16512;SDS011;8369;48.030;11.598;2023-12-29T06:22:42;3.17;;;1.90;;
16512;SDS011;8369;48.030;11.598;2023-12-29T06:25:11;4.07;;;3.27;;
16512;SDS011;8369;48.030;11.598;2023-12-29T06:27:42;10.60;;;6.57;;
16512;SDS011;8369;48.030;11.598;2023-12-29T06:30:12;9.23;;;6.10;;
16512;SDS011;8369;48.030;11.598;2023-12-29T06:32:40;9.50;;;5.93;;
16512;SDS011;8369;48.030;11.598;2023-12-29T06:35:07;5.40;;;4.20;;
16512;SDS011;8369;48.030;11.598;2023-12-29T06:37:38;4.23;;;2.80;;
16512;SDS011;8369;48.030;11.598;2023-12-29T06:40:07;2.80;;;1.97;;
16512;SDS011;8369;48.030;11.598;2023-12-29T06:42:35;2.97;;;1.90;;
16512;SDS011;8369;48.030;11.598;2023-12-29T06:45:04;2.20;;;1.73;;
16512;SDS011;8369;48.030;11.598;2023-12-29T06:47:36;2.87;;;2.30;;
16512;SDS011;8369;48.030;11.598;2023-12-29T06:50:05;3.73;;;2.40;;
16512;SDS011;8369;48.030;11.598;2023-12-29T06:52:40;4.07;;;2.20;;
16512;SDS011;8369;48.030;11.598;2023-12-29T06:55:09;1.80;;;1.70;;
16512;SDS011;8369;48.030;11.598;2023-12-29T06:57:37;2.53;;;1.87;;
16512;SDS011;8369;48.030;11.598;2023-12-29T07:00:08;2.10;;;1.50;;
16512;SDS011;8369;48.030;11.598;2023-12-29T07:02:37;3.17;;;1.90;;
16512;SDS011;8369;48.030;11.598;2023-12-29T07:05:07;3.07;;;2.23;;
16512;SDS011;8369;48.030;11.598;2023-12-29T07:07:37;5.17;;;2.50;;
16512;SDS011;8369;48.030;11.598;2023-12-29T07:10:06;2.40;;;2.00;;
16512;SDS011;8369;48.030;11.598;2023-12-29T07:12:42;3.83;;;2.47;;
16512;SDS011;8369;48.030;11.598;2023-12-29T07:15:15;5.93;;;3.60;;
16512;SDS011;8369;48.030;11.598;2023-12-29T07:17:48;7.70;;;4.43;;
16512;SDS011;8369;48.030;11.598;2023-12-29T07:20:18;5.37;;;3.27;;
16512;SDS011;8369;48.030;11.598;2023-12-29T07:22:47;5.93;;;3.57;;
16512;SDS011;8369;48.030;11.598;2023-12-29T07:25:17;6.03;;;5.27;;
16512;SDS011;8369;48.030;11.598;2023-12-29T07:27:52;5.67;;;4.43;;
16512;SDS011;8369;48.030;11.598;2023-12-29T07:30:21;7.10;;;4.20;;
16512;SDS011;8369;48.030;11.598;2023-12-29T07:32:51;5.10;;;3.37;;
16512;SDS011;8369;48.030;11.598;2023-12-29T07:35:28;3.07;;;2.43;;
16512;SDS011;8369;48.030;11.598;2023-12-29T07:37:57;1.73;;;1.60;;
16512;SDS011;8369;48.030;11.598;2023-12-29T07:40:25;3.23;;;2.30;;
16512;SDS011;8369;48.030;11.598;2023-12-29T07:42:55;4.67;;;2.87;;
16512;SDS011;8369;48.030;11.598;2023-12-29T07:45:24;6.53;;;4.93;;
16512;SDS011;8369;48.030;11.598;2023-12-29T07:47:51;4.30;;;3.07;;
16512;SDS011;8369;48.030;11.598;2023-12-29T07:50:22;4.30;;;3.10;;
16512;SDS011;8369;48.030;11.598;2023-12-29T07:52:54;2.40;;;2.20;;
16512;SDS011;8369;48.030;11.598;2023-12-29T07:55:30;3.43;;;2.13;;
16512;SDS011;8369;48.030;11.598;2023-12-29T07:58:03;2.40;;;1.80;;
16512;SDS011;8369;48.030;11.598;2023-12-29T08:00:36;2.67;;;2.00;;
16512;SDS011;8369;48.030;11.598;2023-12-29T08:03:05;1.87;;;1.57;;
16512;SDS011;8369;48.030;11.598;2023-12-29T08:05:34;2.13;;;1.83;;
16512;SDS011;8369;48.030;11.598;2023-12-29T08:08:03;2.97;;;2.20;;
16512;SDS011;8369;48.030;11.598;2023-12-29T08:10:32;4.17;;;2.00;;
16512;SDS011;8369;48.030;11.598;2023-12-29T08:13:03;2.03;;;1.80;;
16512;SDS011;8369;48.030;11.598;2023-12-29T08:15:34;2.87;;;1.97;;
16512;SDS011;8369;48.030;11.598;2023-12-29T08:18:05;2.47;;;1.90;;
16512;SDS011;8369;48.030;11.598;2023-12-29T08:20:34;2.57;;;1.60;;
16512;SDS011;8369;48.030;11.598;2023-12-29T08:23:03;1.87;;;1.67;;
16512;SDS011;8369;48.030;11.598;2023-12-29T08:25:31;2.50;;;1.80;;
16512;SDS011;8369;48.030;11.598;2023-12-29T08:28:02;2.10;;;1.90;;
16512;SDS011;8369;48.030;11.598;2023-12-29T08:30:34;2.80;;;1.97;;
16512;SDS011;8369;48.030;11.598;2023-12-29T08:33:04;2.13;;;1.60;;
16512;SDS011;8369;48.030;11.598;2023-12-29T08:35:35;2.70;;;1.90;;
16512;SDS011;8369;48.030;11.598;2023-12-29T08:38:07;2.70;;;1.70;;
16512;SDS011;8369;48.030;11.598;2023-12-29T08:40:36;2.00;;;1.67;;
16512;SDS011;8369;48.030;11.598;2023-12-29T08:43:10;2.10;;;1.60;;
16512;SDS011;8369;48.030;11.598;2023-12-29T08:45:47;3.20;;;1.73;;
16512;SDS011;8369;48.030;11.598;2023-12-29T08:48:21;1.73;;;1.60;;
16512;SDS011;8369;48.030;11.598;2023-12-29T08:50:53;2.83;;;2.17;;
16512;SDS011;8369;48.030;11.598;2023-12-29T08:53:23;2.60;;;1.97;;
16512;SDS011;8369;48.030;11.598;2023-12-29T08:55:54;2.87;;;2.23;;
16512;SDS011;8369;48.030;11.598;2023-12-29T08:58:27;2.73;;;2.00;;
16512;SDS011;8369;48.030;11.598;2023-12-29T09:00:56;2.67;;;1.60;;
16512;SDS011;8369;48.030;11.598;2023-12-29T09:03:25;2.00;;;1.80;;
16512;SDS011;8369;48.030;11.598;2023-12-29T09:05:54;2.40;;;1.70;;
16512;SDS011;8369;48.030;11.598;2023-12-29T09:08:23;2.07;;;1.70;;
16512;SDS011;8369;48.030;11.598;2023-12-29T09:10:55;2.10;;;1.70;;
16512;SDS011;8369;48.030;11.598;2023-12-29T09:13:24;2.20;;;2.00;;
16512;SDS011;8369;48.030;11.598;2023-12-29T09:15:53;1.80;;;1.70;;
16512;SDS011;8369;48.030;11.598;2023-12-29T09:18:23;1.60;;;1.50;;
16512;SDS011;8369;48.030;11.598;2023-12-29T09:20:50;1.97;;;1.63;;
16512;SDS011;8369;48.030;11.598;2023-12-29T09:23:19;1.93;;;1.77;;
16512;SDS011;8369;48.030;11.598;2023-12-29T09:25:55;2.77;;;1.80;;
16512;SDS011;8369;48.030;11.598;2023-12-29T09:28:26;1.97;;;1.70;;
16512;SDS011;8369;48.030;11.598;2023-12-29T09:30:57;2.30;;;1.87;;
16512;SDS011;8369;48.030;11.598;2023-12-29T09:33:26;3.97;;;2.00;;
16512;SDS011;8369;48.030;11.598;2023-12-29T09:35:55;2.30;;;1.80;;
16512;SDS011;8369;48.030;11.598;2023-12-29T09:38:24;1.70;;;1.50;;
16512;SDS011;8369;48.030;11.598;2023-12-29T09:40:57;3.27;;;2.00;;
16512;SDS011;8369;48.030;11.598;2023-12-29T09:43:31;1.70;;;1.50;;
16512;SDS011;8369;48.030;11.598;2023-12-29T09:46:02;3.00;;;1.67;;
16512;SDS011;8369;48.030;11.598;2023-12-29T09:48:30;2.00;;;1.53;;
16512;SDS011;8369;48.030;11.598;2023-12-29T09:51:04;1.80;;;1.50;;
16512;SDS011;8369;48.030;11.598;2023-12-29T09:53:33;1.40;;;1.30;;
16512;SDS011;8369;48.030;11.598;2023-12-29T09:56:04;3.10;;;1.70;;
16512;SDS011;8369;48.030;11.598;2023-12-29T09:58:36;2.10;;;1.67;;
16512;SDS011;8369;48.030;11.598;2023-12-29T10:01:07;2.20;;;1.80;;
16512;SDS011;8369;48.030;11.598;2023-12-29T10:03:35;1.73;;;1.60;;
16512;SDS011;8369;48.030;11.598;2023-12-29T10:06:06;2.30;;;1.60;;
16512;SDS011;8369;48.030;11.598;2023-12-29T10:08:34;5.10;;;1.67;;
16512;SDS011;8369;48.030;11.598;2023-12-29T10:11:05;1.73;;;1.60;;
16512;SDS011;8369;48.030;11.598;2023-12-29T10:13:34;1.40;;;1.30;;
16512;SDS011;8369;48.030;11.598;2023-12-29T10:16:08;1.40;;;1.30;;
16512;SDS011;8369;48.030;11.598;2023-12-29T10:21:48;1.40;;;1.30;;
16512;SDS011;8369;48.030;11.598;2023-12-29T10:24:21;1.30;;;1.20;;
16512;SDS011;8369;48.030;11.598;2023-12-29T10:26:49;1.37;;;1.27;;
16512;SDS011;8369;48.030;11.598;2023-12-29T10:29:19;1.50;;;1.20;;
16512;SDS011;8369;48.030;11.598;2023-12-29T10:31:47;2.23;;;1.60;;
16512;SDS011;8369;48.030;11.598;2023-12-29T10:34:21;1.30;;;1.20;;
16512;SDS011;8369;48.030;11.598;2023-12-29T10:36:55;1.20;;;1.10;;
16512;SDS011;8369;48.030;11.598;2023-12-29T10:39:23;1.10;;;1.00;;
16512;SDS011;8369;48.030;11.598;2023-12-29T10:42:12;2.17;;;1.70;;
16512;SDS011;8369;48.030;11.598;2023-12-29T10:44:38;1.13;;;1.03;;
16512;SDS011;8369;48.030;11.598;2023-12-29T10:47:10;1.23;;;1.13;;
16512;SDS011;8369;48.030;11.598;2023-12-29T10:49:39;1.20;;;1.10;;
16512;SDS011;8369;48.030;11.598;2023-12-29T10:52:13;1.30;;;1.13;;
16512;SDS011;8369;48.030;11.598;2023-12-29T10:54:42;1.17;;;1.07;;
16512;SDS011;8369;48.030;11.598;2023-12-29T10:57:13;1.10;;;1.00;;
16512;SDS011;8369;48.030;11.598;2023-12-29T10:59:48;0.90;;;0.90;;
16512;SDS011;8369;48.030;11.598;2023-12-29T11:02:23;1.13;;;1.03;;
16512;SDS011;8369;48.030;11.598;2023-12-29T11:05:05;1.10;;;1.00;;
16512;SDS011;8369;48.030;11.598;2023-12-29T11:07:35;1.00;;;1.00;;
16512;SDS011;8369;48.030;11.598;2023-12-29T11:10:07;1.10;;;1.00;;
16512;SDS011;8369;48.030;11.598;2023-12-29T11:12:39;1.37;;;1.03;;
16512;SDS011;8369;48.030;11.598;2023-12-29T11:15:06;1.13;;;1.03;;
16512;SDS011;8369;48.030;11.598;2023-12-29T11:17:35;1.07;;;0.80;;
16512;SDS011;8369;48.030;11.598;2023-12-29T11:20:15;1.43;;;1.10;;
16512;SDS011;8369;48.030;11.598;2023-12-29T11:22:49;0.97;;;0.97;;
16512;SDS011;8369;48.030;11.598;2023-12-29T11:25:16;1.27;;;1.17;;
16512;SDS011;8369;48.030;11.598;2023-12-29T11:27:44;1.30;;;1.20;;
16512;SDS011;8369;48.030;11.598;2023-12-29T11:30:15;1.17;;;1.07;;
16512;SDS011;8369;48.030;11.598;2023-12-29T11:32:57;1.30;;;1.20;;
16512;SDS011;8369;48.030;11.598;2023-12-29T11:35:53;1.20;;;1.10;;
16512;SDS011;8369;48.030;11.598;2023-12-29T11:38:40;1.30;;;1.00;;
16512;SDS011;8369;48.030;11.598;2023-12-29T11:44:30;1.57;;;1.30;;
16512;SDS011;8369;48.030;11.598;2023-12-29T11:46:58;1.40;;;1.20;;
16512;SDS011;8369;48.030;11.598;2023-12-29T11:49:26;1.10;;;1.00;;
16512;SDS011;8369;48.030;11.598;2023-12-29T11:52:10;1.07;;;1.00;;
16512;SDS011;8369;48.030;11.598;2023-12-29T11:54:37;1.00;;;1.00;;
16512;SDS011;8369;48.030;11.598;2023-12-29T11:57:05;1.87;;;1.07;;
16512;SDS011;8369;48.030;11.598;2023-12-29T11:59:34;1.20;;;1.10;;
16512;SDS011;8369;48.030;11.598;2023-12-29T12:02:26;1.10;;;1.00;;
16512;SDS011;8369;48.030;11.598;2023-12-29T12:04:55;1.10;;;1.00;;
16512;SDS011;8369;48.030;11.598;2023-12-29T12:09:51;1.20;;;1.10;;
16512;SDS011;8369;48.030;11.598;2023-12-29T12:12:39;1.10;;;1.00;;
16512;SDS011;8369;48.030;11.598;2023-12-29T12:17:52;1.17;;;1.10;;
16512;SDS011;8369;48.030;11.598;2023-12-29T12:20:19;1.00;;;1.00;;
16512;SDS011;8369;48.030;11.598;2023-12-29T12:22:48;1.93;;;1.00;;
16512;SDS011;8369;48.030;11.598;2023-12-29T12:25:27;1.47;;;1.13;;
16512;SDS011;8369;48.030;11.598;2023-12-29T12:27:56;1.00;;;1.00;;
16512;SDS011;8369;48.030;11.598;2023-12-29T12:30:22;0.90;;;0.90;;
16512;SDS011;8369;48.030;11.598;2023-12-29T12:32:58;1.10;;;1.00;;
16512;SDS011;8369;48.030;11.598;2023-12-29T12:35:28;1.13;;;1.03;;
16512;SDS011;8369;48.030;11.598;2023-12-29T12:38:08;1.33;;;1.10;;
16512;SDS011;8369;48.030;11.598;2023-12-29T12:40:35;1.30;;;1.20;;
16512;SDS011;8369;48.030;11.598;2023-12-29T12:43:01;1.83;;;1.20;;
16512;SDS011;8369;48.030;11.598;2023-12-29T12:45:28;1.17;;;1.10;;
16512;SDS011;8369;48.030;11.598;2023-12-29T12:48:02;3.90;;;1.10;;
16512;SDS011;8369;48.030;11.598;2023-12-29T12:50:41;1.20;;;1.10;;
16512;SDS011;8369;48.030;11.598;2023-12-29T12:53:17;0.90;;;0.90;;
16512;SDS011;8369;48.030;11.598;2023-12-29T12:55:47;1.77;;;1.30;;
16512;SDS011;8369;48.030;11.598;2023-12-29T12:58:17;1.77;;;1.10;;
16512;SDS011;8369;48.030;11.598;2023-12-29T13:00:46;1.67;;;0.90;;
16512;SDS011;8369;48.030;11.598;2023-12-29T13:03:13;1.20;;;1.10;;
16512;SDS011;8369;48.030;11.598;2023-12-29T13:05:40;1.17;;;1.07;;
16512;SDS011;8369;48.030;11.598;2023-12-29T13:08:11;1.23;;;1.13;;
16512;SDS011;8369;48.030;11.598;2023-12-29T13:10:41;1.00;;;1.00;;
16512;SDS011;8369;48.030;11.598;2023-12-29T13:13:09;1.20;;;1.10;;
16512;SDS011;8369;48.030;11.598;2023-12-29T13:15:35;0.90;;;0.90;;
16512;SDS011;8369;48.030;11.598;2023-12-29T13:18:17;1.20;;;1.10;;
16512;SDS011;8369;48.030;11.598;2023-12-29T13:20:53;1.27;;;0.97;;
16512;SDS011;8369;48.030;11.598;2023-12-29T13:23:19;0.90;;;0.90;;
16512;SDS011;8369;48.030;11.598;2023-12-29T13:25:50;1.13;;;1.03;;
16512;SDS011;8369;48.030;11.598;2023-12-29T13:28:20;1.30;;;1.17;;
16512;SDS011;8369;48.030;11.598;2023-12-29T13:30:49;1.27;;;1.00;;
16512;SDS011;8369;48.030;11.598;2023-12-29T13:33:28;1.00;;;1.00;;
16512;SDS011;8369;48.030;11.598;2023-12-29T13:35:57;1.03;;;1.00;;
16512;SDS011;8369;48.030;11.598;2023-12-29T13:38:37;1.17;;;1.07;;
16512;SDS011;8369;48.030;11.598;2023-12-29T13:41:11;1.20;;;1.10;;
16512;SDS011;8369;48.030;11.598;2023-12-29T13:43:40;0.90;;;0.90;;
16512;SDS011;8369;48.030;11.598;2023-12-29T13:46:11;1.20;;;1.10;;
16512;SDS011;8369;48.030;11.598;2023-12-29T13:48:39;0.83;;;0.83;;
16512;SDS011;8369;48.030;11.598;2023-12-29T13:51:06;2.87;;;1.17;;
16512;SDS011;8369;48.030;11.598;2023-12-29T13:53:34;1.13;;;1.03;;
16512;SDS011;8369;48.030;11.598;2023-12-29T13:56:07;1.50;;;1.10;;
16512;SDS011;8369;48.030;11.598;2023-12-29T13:58:37;1.83;;;1.07;;
16512;SDS011;8369;48.030;11.598;2023-12-29T14:01:06;1.03;;;1.00;;
16512;SDS011;8369;48.030;11.598;2023-12-29T14:03:38;1.10;;;1.00;;
16512;SDS011;8369;48.030;11.598;2023-12-29T14:06:11;0.90;;;0.90;;
16512;SDS011;8369;48.030;11.598;2023-12-29T14:08:45;1.03;;;1.03;;
16512;SDS011;8369;48.030;11.598;2023-12-29T14:11:13;0.93;;;0.93;;
16512;SDS011;8369;48.030;11.598;2023-12-29T14:13:43;2.10;;;1.10;;
16512;SDS011;8369;48.030;11.598;2023-12-29T14:16:10;1.40;;;1.13;;
16512;SDS011;8369;48.030;11.598;2023-12-29T14:21:22;1.10;;;1.00;;
16512;SDS011;8369;48.030;11.598;2023-12-29T14:26:41;1.20;;;0.90;;
16512;SDS011;8369;48.030;11.598;2023-12-29T14:29:19;1.30;;;1.10;;
16512;SDS011;8369;48.030;11.598;2023-12-29T14:31:46;1.37;;;1.07;;
16512;SDS011;8369;48.030;11.598;2023-12-29T14:34:13;1.23;;;1.13;;
16512;SDS011;8369;48.030;11.598;2023-12-29T14:36:41;0.90;;;0.90;;
16512;SDS011;8369;48.030;11.598;2023-12-29T14:39:07;1.10;;;0.90;;
16512;SDS011;8369;48.030;11.598;2023-12-29T14:41:37;2.13;;;1.00;;
16512;SDS011;8369;48.030;11.598;2023-12-29T14:44:04;1.20;;;1.10;;
16512;SDS011;8369;48.030;11.598;2023-12-29T14:46:33;1.20;;;1.10;;
16512;SDS011;8369;48.030;11.598;2023-12-29T14:49:01;1.93;;;1.00;;
16512;SDS011;8369;48.030;11.598;2023-12-29T14:51:28;1.10;;;1.00;;
16512;SDS011;8369;48.030;11.598;2023-12-29T14:53:54;1.50;;;1.40;;
16512;SDS011;8369;48.030;11.598;2023-12-29T14:56:20;1.80;;;1.10;;
16512;SDS011;8369;48.030;11.598;2023-12-29T14:58:46;1.00;;;1.00;;
16512;SDS011;8369;48.030;11.598;2023-12-29T15:01:12;1.00;;;1.00;;
16512;SDS011;8369;48.030;11.598;2023-12-29T15:03:37;1.20;;;1.10;;
16512;SDS011;8369;48.030;11.598;2023-12-29T15:06:04;2.20;;;1.37;;
16512;SDS011;8369;48.030;11.598;2023-12-29T15:08:30;1.20;;;1.07;;
16512;SDS011;8369;48.030;11.598;2023-12-29T15:11:06;1.50;;;1.40;;
16512;SDS011;8369;48.030;11.598;2023-12-29T15:13:32;1.67;;;1.17;;
16512;SDS011;8369;48.030;11.598;2023-12-29T15:15:59;1.30;;;1.20;;
16512;SDS011;8369;48.030;11.598;2023-12-29T15:18:29;1.20;;;1.10;;
16512;SDS011;8369;48.030;11.598;2023-12-29T15:20:56;1.40;;;1.30;;
16512;SDS011;8369;48.030;11.598;2023-12-29T15:23:22;1.73;;;1.53;;